No data was retrieved for https://query.yahooapis.com/v1/public/yql?q=select+%2A+from+weather.forecast+where+woeid%3D860853&format=xml&u=c



Visit our other weather sites:

Template documentation
and downloads

And another site



Nearby METAR Reports

   
EBAW - Antwerp
Updated: 08-08-2020 13:50
Clear  
Clear  
   Wind: SE 2.6 m/s
Wind: SE 2.6 m/s
Temperature: 35°C
Dew Point: 11°C
Humidity: 23%
Barometer: 1019 hPa
Visibility: More than 10 km
Cloud details: Clear
EBAW 081150Z 14005KT 070V200 CAVOK 35/11 Q1019 NOSIG
EBLG - Liège
Updated: 08-08-2020 13:50
Clear  
Clear  
   Wind: SE 1.5 m/s
Wind: SE 1.5 m/s
Temperature: 34°C
Dew Point: 12°C
Humidity: 26%
Barometer: 1019 hPa
Visibility: More than 10 km
Cloud details: Clear
EBLG 081150Z 14003KT 080V220 CAVOK 34/12 Q1019 NOSIG
EBCV - Mons/Bergen
Updated: 08-08-2020 13:55
Mostly Cloudy  
Mostly Cloudy  
   Wind: North 1.5 m/s
Wind: North 1.5 m/s
Temperature: 35°C
Dew Point: 14°C
Humidity: 28%
Barometer: 1018 hPa
Clouds: Mostly Cloudy
Visibility: More than 10 km
Cloud details: Mostly Cloudy 20000 ft
EBCV 081155Z AUTO 01003KT 9999 BKN200/// 35/14 Q1018 BLU
EHBK - Maastricht
Updated: 08-08-2020 13:55
Clear  
Clear  
   Wind: West 2.1 m/s
Wind: West 2.1 m/s
Temperature: 35°C
Dew Point: 11°C
Humidity: 23%
Barometer: 1019 hPa
Clouds: Clear
Visibility: More than 10 km
Cloud details: Clear
EHBK 081155Z AUTO 26004KT 9999 NCD 35/11 Q1019 NOSIG
ELLX - Luxemburg
Updated: 08-08-2020 13:50
Clear  
Clear  
   Wind: varies 2.1 m/s
Wind: varies 2.1 m/s
Temperature: 33°C
Dew Point: 15°C
Humidity: 34%
Barometer: 1021 hPa
Visibility: More than 10 km
Cloud details: Clear
ELLX 081150Z VRB04KT CAVOK 33/15 Q1021 NOSIG
EBOS - Oostende
Updated: 08-08-2020 13:50
Clear  
Clear  
   Wind: North 4.6 m/s
Wind: North 4.6 m/s
Temperature: 32°C
Dew Point: 14°C
Humidity: 33%
Barometer: 1019 hPa
Visibility: More than 10 km
Cloud details: Clear
EBOS 081150Z 01009KT CAVOK 32/14 Q1019 NOSIG

Script developed by  Saratoga-weather.org Adapted for the template by  Weerstation Leuven

You find our weather info also at:

Weather Underground

Equipment we use:

Weather-station
Davis Vantage Vue

Weather-program
WeatherCat

Provider
one.com

Davis Vantage Vue

WeatherCat

one.com